createdAt,value
2023-05-05T00:00:23.205Z,2.47
2023-05-05T00:05:25.400Z,2.45
2023-05-05T00:10:26.889Z,2.10
2023-05-05T00:15:28.354Z,1.85
2023-05-05T00:20:29.794Z,3.60
2023-05-05T00:25:31.423Z,2.30
2023-05-05T00:30:34.296Z,2.75
2023-05-05T00:35:35.853Z,3.47
2023-05-05T00:40:38.198Z,3.22
2023-05-05T00:45:42.824Z,3.70
2023-05-05T00:50:45.037Z,3.60
2023-05-05T00:55:46.588Z,3.75
2023-05-05T01:00:48.592Z,3.80
2023-05-05T01:06:15.312Z,4.10
2023-05-05T01:11:27.093Z,3.50
2023-05-05T01:16:31.870Z,3.33
2023-05-05T01:22:06.683Z,3.60
2023-05-05T01:27:29.810Z,3.30
2023-05-05T01:32:37.702Z,3.55
2023-05-05T01:37:54.786Z,2.63
2023-05-05T01:42:57.176Z,2.60
2023-05-05T01:48:01.332Z,2.58
2023-05-05T01:53:04.824Z,3.20
2023-05-05T01:58:07.657Z,3.20
2023-05-05T02:03:12.352Z,3.35
2023-05-05T02:08:15.788Z,2.95
2023-05-05T02:13:18.690Z,3.53
2023-05-05T02:18:22.957Z,3.13
2023-05-05T02:23:25.727Z,4.38
2023-05-05T02:28:42.235Z,3.28
2023-05-05T02:33:46.867Z,3.47
2023-05-05T02:38:53.026Z,3.70
2023-05-05T02:43:56.530Z,3.72
2023-05-05T02:48:59.724Z,4.00
2023-05-05T02:54:01.855Z,4.18
2023-05-05T02:59:14.434Z,4.10
2023-05-05T03:04:42.677Z,3.30
2023-05-05T03:14:58.429Z,2.90
2023-05-05T03:20:04.004Z,3.70
2023-05-05T03:25:08.389Z,3.15
2023-05-05T03:30:10.640Z,2.55
2023-05-05T03:35:19.816Z,3.22
2023-05-05T03:40:29.897Z,3.88
2023-05-05T03:45:38.843Z,3.58
2023-05-05T03:50:40.780Z,2.85
2023-05-05T03:55:43.021Z,2.63
2023-05-05T04:00:46.098Z,2.55
2023-05-05T04:05:48.683Z,3.05
2023-05-05T04:10:51.114Z,3.97
2023-05-05T04:15:53.076Z,3.60
2023-05-05T04:20:54.781Z,4.55
2023-05-05T04:25:57.617Z,3.88
2023-05-05T04:31:02.530Z,4.38
2023-05-05T04:36:05.998Z,3.70
2023-05-05T04:41:07.630Z,4.00
2023-05-05T04:46:10.975Z,4.30
2023-05-05T04:51:13.293Z,5.10
2023-05-05T04:56:15.692Z,4.70
2023-05-05T05:01:17.341Z,4.60
2023-05-05T05:11:20.223Z,5.65
2023-05-05T05:21:23.603Z,4.50
2023-05-05T05:26:25.834Z,4.88
2023-05-05T05:31:27.452Z,4.40
2023-05-05T05:36:29.833Z,4.50
2023-05-05T05:46:32.741Z,5.00
2023-05-05T05:56:36.640Z,5.45
2023-05-05T06:01:38.336Z,5.13
2023-05-05T06:06:39.964Z,4.47
2023-05-05T06:16:42.945Z,5.75
2023-05-05T06:21:48.282Z,5.75
2023-05-05T06:26:50.303Z,5.68
2023-05-05T06:31:51.969Z,5.40
2023-05-05T06:36:53.632Z,5.82
2023-05-05T06:41:55.172Z,5.75
2023-05-05T06:46:57.222Z,4.93
2023-05-05T06:51:58.724Z,4.20
2023-05-05T06:57:00.244Z,5.18
2023-05-05T07:02:01.839Z,4.00
2023-05-05T07:07:03.338Z,4.20
2023-05-05T07:12:04.980Z,4.13
2023-05-05T07:17:06.493Z,4.10
2023-05-05T07:22:08.051Z,3.22
2023-05-05T07:27:09.689Z,3.38
2023-05-05T07:32:11.267Z,3.50
2023-05-05T07:37:12.813Z,3.15
2023-05-05T07:42:14.846Z,3.63
2023-05-05T07:47:16.402Z,3.15
2023-05-05T07:52:17.909Z,3.00
2023-05-05T07:57:20.328Z,2.80
2023-05-05T08:38:50.572Z,2.83
2023-05-05T08:49:46.290Z,3.25
2023-05-05T08:54:57.130Z,2.58
2023-05-05T09:00:00.198Z,3.25
2023-05-05T09:05:05.219Z,4.13
2023-05-05T09:10:10.122Z,2.90
2023-05-05T09:15:14.147Z,2.33
2023-05-05T09:20:15.696Z,2.70
2023-05-05T09:25:18.363Z,2.60
2023-05-05T09:30:27.113Z,2.30
2023-05-05T09:35:28.823Z,1.92
2023-05-05T09:40:45.389Z,2.13
2023-05-05T09:45:49.026Z,2.22
2023-05-05T09:50:50.648Z,1.58
2023-05-05T09:56:00.961Z,1.42
2023-05-05T10:01:02.469Z,1.90
2023-05-05T10:06:04.662Z,1.85
2023-05-05T10:11:07.002Z,1.80
2023-05-05T10:16:09.608Z,2.00
2023-05-05T10:21:13.850Z,2.22
2023-05-05T10:26:17.020Z,1.80
2023-05-05T10:31:41.161Z,1.80
2023-05-05T10:36:44.963Z,1.98
2023-05-05T10:41:47.575Z,2.00
2023-05-05T10:46:49.320Z,1.90
2023-05-05T10:52:17.471Z,2.13
2023-05-05T10:57:29.750Z,2.30
2023-05-05T11:02:31.410Z,2.33
2023-05-05T11:07:34.387Z,2.35
2023-05-05T11:12:59.305Z,2.10
2023-05-05T11:18:04.835Z,2.13
2023-05-05T11:23:08.558Z,2.45
2023-05-05T11:28:12.308Z,1.70
2023-05-05T11:33:26.847Z,1.75
2023-05-05T11:38:53.046Z,1.77
2023-05-05T11:44:13.891Z,2.00
2023-05-05T11:49:26.494Z,1.73
2023-05-05T11:54:54.092Z,1.83
2023-05-05T11:59:58.873Z,2.10
2023-05-05T12:05:00.977Z,1.60
2023-05-05T12:10:02.708Z,2.13
2023-05-05T12:15:05.037Z,1.75
2023-05-05T12:20:07.540Z,1.75
2023-05-05T12:25:09.602Z,1.75
2023-05-05T12:30:16.971Z,1.80
2023-05-05T12:35:19.773Z,2.03
2023-05-05T12:40:51.799Z,1.92
2023-05-05T12:46:11.890Z,2.72
2023-05-05T12:51:20.733Z,2.08
2023-05-05T12:56:29.740Z,2.00
2023-05-05T13:01:31.765Z,2.13
2023-05-05T13:06:33.397Z,2.30
2023-05-05T13:11:37.876Z,2.00
2023-05-05T13:16:39.321Z,2.35
2023-05-05T13:21:41.648Z,2.45
2023-05-05T13:26:43.085Z,2.00
2023-05-05T13:31:45.512Z,1.73
2023-05-05T13:36:47.024Z,1.90
2023-05-05T13:41:48.522Z,1.60
2023-05-05T13:46:50.037Z,1.98
2023-05-05T13:51:51.603Z,1.85
2023-05-05T13:56:53.227Z,2.30
2023-05-05T14:01:54.725Z,2.35
2023-05-05T14:06:58.232Z,1.75
2023-05-05T14:11:59.725Z,1.83
2023-05-05T14:17:01.364Z,1.75
2023-05-05T14:22:03.154Z,1.88
2023-05-05T14:27:04.710Z,1.88
2023-05-05T14:32:06.182Z,1.80
2023-05-05T14:37:07.713Z,2.15
2023-05-05T14:42:09.343Z,1.70
2023-05-05T14:47:10.858Z,1.55
2023-05-05T14:52:12.300Z,1.65
2023-05-05T14:57:13.779Z,1.70
2023-05-05T15:02:15.884Z,1.70
2023-05-05T15:07:17.335Z,1.80
2023-05-05T15:12:18.787Z,1.50
2023-05-05T15:17:20.331Z,1.70
2023-05-05T15:22:21.791Z,1.75
2023-05-05T15:27:23.390Z,2.08
2023-05-05T15:32:24.950Z,1.73
2023-05-05T15:37:28.799Z,2.05
2023-05-05T15:42:32.643Z,2.10
2023-05-05T15:47:36.010Z,1.80
2023-05-05T15:52:37.587Z,1.90
2023-05-05T15:57:42.006Z,1.90
2023-05-05T16:02:43.567Z,1.73
2023-05-05T16:07:45.112Z,2.00
2023-05-05T16:12:46.582Z,1.90
2023-05-05T16:17:48.073Z,2.03
2023-05-05T16:22:49.529Z,1.80
2023-05-05T16:27:50.983Z,1.85
2023-05-05T16:32:58.830Z,1.80
2023-05-05T16:38:00.743Z,1.95
2023-05-05T16:43:02.167Z,1.90
2023-05-05T16:48:04.009Z,1.88
2023-05-05T16:53:06.451Z,1.70
2023-05-05T16:58:08.013Z,1.70
2023-05-05T17:03:09.473Z,1.90
2023-05-05T17:08:14.483Z,1.92
2023-05-05T17:13:16.061Z,1.83
2023-05-05T17:18:20.110Z,1.92
2023-05-05T17:23:21.566Z,1.63
2023-05-05T17:28:23.013Z,2.20
2023-05-05T17:33:24.461Z,2.00
2023-05-05T17:38:25.914Z,1.80
2023-05-05T17:43:27.367Z,2.20
2023-05-05T17:48:28.856Z,1.73
2023-05-05T17:53:30.327Z,1.90
2023-05-05T17:58:31.774Z,1.85
2023-05-05T18:03:33.328Z,2.55
2023-05-05T18:08:34.829Z,2.08
2023-05-05T18:13:36.657Z,2.05
2023-05-05T18:18:40.233Z,2.53
2023-05-05T18:23:41.839Z,2.15
2023-05-05T18:28:43.294Z,2.38
2023-05-05T18:33:46.879Z,1.73
2023-05-05T18:38:49.283Z,2.08
2023-05-05T18:43:50.718Z,2.20
2023-05-05T18:48:52.178Z,2.45
2023-05-05T18:53:53.745Z,2.63
2023-05-05T18:58:55.578Z,2.83
2023-05-05T19:03:57.057Z,2.97
2023-05-05T19:08:58.532Z,2.22
2023-05-05T19:13:59.978Z,2.85
2023-05-05T19:19:01.449Z,2.30
2023-05-05T19:24:03.002Z,2.42
2023-05-05T19:29:04.629Z,2.50
2023-05-05T19:34:06.333Z,3.10
2023-05-05T19:39:08.113Z,2.60
2023-05-05T19:44:09.573Z,2.90
2023-05-05T19:49:11.191Z,3.08
2023-05-05T19:54:12.736Z,3.70
2023-05-05T19:59:14.226Z,2.60
2023-05-05T20:04:15.686Z,2.60
2023-05-05T20:09:17.422Z,2.45
2023-05-05T20:14:18.876Z,2.30
2023-05-05T20:19:20.342Z,2.25
2023-05-05T20:24:21.811Z,3.28
2023-05-05T20:29:23.297Z,3.45
2023-05-05T20:34:25.205Z,2.40
2023-05-05T20:39:26.763Z,3.47
2023-05-05T20:44:28.220Z,3.70
2023-05-05T20:49:30.372Z,3.38
2023-05-05T20:54:35.057Z,3.22
2023-05-05T20:59:37.692Z,3.45
2023-05-05T21:04:39.138Z,2.53
2023-05-05T21:09:40.826Z,3.28
2023-05-05T21:14:48.090Z,3.45
2023-05-05T21:19:49.540Z,3.50
2023-05-05T21:24:51.186Z,2.30
2023-05-05T21:29:52.649Z,3.15
2023-05-05T21:34:54.090Z,2.10
2023-05-05T21:39:55.533Z,3.40
2023-05-05T21:44:56.968Z,2.40
2023-05-05T21:49:58.959Z,3.00
2023-05-05T21:55:00.441Z,3.08
2023-05-05T22:00:02.463Z,2.85
2023-05-05T22:05:13.953Z,3.38
2023-05-05T22:10:15.398Z,2.80
2023-05-05T22:15:19.854Z,2.90
2023-05-05T22:20:21.672Z,3.38
2023-05-05T22:25:23.129Z,3.75
2023-05-05T22:30:24.564Z,4.10
2023-05-05T22:35:26.054Z,4.90
2023-05-05T22:40:28.635Z,2.10
2023-05-05T22:45:32.409Z,4.13
2023-05-05T22:50:35.187Z,3.88
2023-05-05T22:55:36.633Z,4.05
2023-05-05T23:00:38.481Z,3.97
2023-05-05T23:05:39.921Z,4.10
2023-05-05T23:10:41.417Z,3.90
2023-05-05T23:15:43.574Z,3.88
2023-05-05T23:20:45.013Z,3.92
2023-05-05T23:25:46.669Z,2.90
2023-05-05T23:30:48.180Z,2.65
2023-05-05T23:35:51.299Z,3.28
2023-05-05T23:40:53.544Z,2.92
2023-05-05T23:45:55.015Z,3.58
2023-05-05T23:50:56.668Z,3.40
2023-05-05T23:55:58.546Z,3.22
